sensor_id;sensor_type;location;lat;lon;timestamp;pressure;altitude;pressure_sealevel;temperature;humidity
13767;BME280;47980;48.794;9.176;2023-05-23T00:00:50;98035.81;;;18.90;93.36
13767;BME280;47980;48.794;9.176;2023-05-23T00:03:22;98042.75;;;18.98;93.32
13767;BME280;47980;48.794;9.176;2023-05-23T00:05:53;98042.00;;;19.09;94.09
13767;BME280;47980;48.794;9.176;2023-05-23T00:08:25;98039.69;;;18.96;94.58
13767;BME280;47980;48.794;9.176;2023-05-23T00:10:58;98044.66;;;18.87;96.01
13767;BME280;47980;48.794;9.176;2023-05-23T00:13:29;98048.88;;;18.88;95.94
13767;BME280;47980;48.794;9.176;2023-05-23T00:16:04;98047.31;;;18.87;96.80
13767;BME280;47980;48.794;9.176;2023-05-23T00:18:40;98046.53;;;18.80;97.62
13767;BME280;47980;48.794;9.176;2023-05-23T00:21:12;98050.00;;;18.84;98.22
13767;BME280;47980;48.794;9.176;2023-05-23T00:23:43;98041.59;;;18.85;97.46
13767;BME280;47980;48.794;9.176;2023-05-23T00:26:16;98041.56;;;18.82;98.29
13767;BME280;47980;48.794;9.176;2023-05-23T00:28:48;98045.78;;;18.79;98.07
13767;BME280;47980;48.794;9.176;2023-05-23T00:31:19;98055.75;;;18.75;97.59
13767;BME280;47980;48.794;9.176;2023-05-23T00:33:51;98052.63;;;18.69;97.99
13767;BME280;47980;48.794;9.176;2023-05-23T00:36:22;98049.16;;;18.69;98.77
13767;BME280;47980;48.794;9.176;2023-05-23T00:38:54;98050.31;;;18.61;98.61
13767;BME280;47980;48.794;9.176;2023-05-23T00:41:27;98059.56;;;18.67;99.33
13767;BME280;47980;48.794;9.176;2023-05-23T00:43:59;98063.03;;;18.71;99.33
13767;BME280;47980;48.794;9.176;2023-05-23T00:46:31;98058.75;;;18.66;99.58
13767;BME280;47980;48.794;9.176;2023-05-23T00:49:03;98069.19;;;18.71;99.29
13767;BME280;47980;48.794;9.176;2023-05-23T00:51:34;98063.38;;;18.69;99.99
13767;BME280;47980;48.794;9.176;2023-05-23T00:54:06;98061.13;;;18.75;99.35
13767;BME280;47980;48.794;9.176;2023-05-23T00:56:39;98058.06;;;18.80;99.32
13767;BME280;47980;48.794;9.176;2023-05-23T00:59:13;98074.94;;;18.77;99.07
13767;BME280;47980;48.794;9.176;2023-05-23T01:01:47;98068.44;;;18.78;99.28
13767;BME280;47980;48.794;9.176;2023-05-23T01:04:19;98075.75;;;18.85;99.51
13767;BME280;47980;48.794;9.176;2023-05-23T01:06:51;98073.47;;;18.90;98.71
13767;BME280;47980;48.794;9.176;2023-05-23T01:09:25;98069.25;;;18.89;98.82
13767;BME280;47980;48.794;9.176;2023-05-23T01:12:13;98076.09;;;18.76;99.81
13767;BME280;47980;48.794;9.176;2023-05-23T01:14:51;98072.25;;;18.77;99.84
13767;BME280;47980;48.794;9.176;2023-05-23T01:17:32;98079.19;;;18.78;99.22
13767;BME280;47980;48.794;9.176;2023-05-23T01:20:08;98079.16;;;18.71;98.79
13767;BME280;47980;48.794;9.176;2023-05-23T01:25:47;98070.28;;;18.63;100.00
13767;BME280;47980;48.794;9.176;2023-05-23T01:28:31;98076.44;;;18.64;100.00
13767;BME280;47980;48.794;9.176;2023-05-23T01:31:06;98069.88;;;18.61;100.00
13767;BME280;47980;48.794;9.176;2023-05-23T01:33:39;98072.97;;;18.60;100.00
13767;BME280;47980;48.794;9.176;2023-05-23T01:36:12;98071.34;;;18.48;100.00
13767;BME280;47980;48.794;9.176;2023-05-23T01:38:44;98075.59;;;18.45;100.00
13767;BME280;47980;48.794;9.176;2023-05-23T01:41:16;98072.53;;;18.50;100.00
13767;BME280;47980;48.794;9.176;2023-05-23T01:43:49;98074.03;;;18.48;100.00
13767;BME280;47980;48.794;9.176;2023-05-23T01:46:21;98077.50;;;18.45;100.00
13767;BME280;47980;48.794;9.176;2023-05-23T01:48:54;98082.88;;;18.45;100.00
13767;BME280;47980;48.794;9.176;2023-05-23T01:51:27;98077.50;;;18.41;100.00
13767;BME280;47980;48.794;9.176;2023-05-23T01:54:00;98085.91;;;18.40;100.00
13767;BME280;47980;48.794;9.176;2023-05-23T01:56:32;98086.25;;;18.31;100.00
13767;BME280;47980;48.794;9.176;2023-05-23T01:59:05;98085.13;;;18.39;100.00
13767;BME280;47980;48.794;9.176;2023-05-23T02:01:36;98087.06;;;18.42;100.00
13767;BME280;47980;48.794;9.176;2023-05-23T02:04:08;98078.56;;;18.33;100.00
13767;BME280;47980;48.794;9.176;2023-05-23T02:06:40;98080.56;;;18.47;100.00
13767;BME280;47980;48.794;9.176;2023-05-23T02:09:12;98080.97;;;18.49;100.00
13767;BME280;47980;48.794;9.176;2023-05-23T02:11:43;98080.91;;;18.38;100.00
13767;BME280;47980;48.794;9.176;2023-05-23T02:14:16;98078.19;;;18.31;100.00
13767;BME280;47980;48.794;9.176;2023-05-23T02:16:48;98075.91;;;18.37;100.00
13767;BME280;47980;48.794;9.176;2023-05-23T02:19:21;98077.38;;;18.20;100.00
13767;BME280;47980;48.794;9.176;2023-05-23T02:21:53;98079.34;;;18.26;100.00
13767;BME280;47980;48.794;9.176;2023-05-23T02:24:24;98082.34;;;18.18;100.00
13767;BME280;47980;48.794;9.176;2023-05-23T02:26:56;98076.22;;;18.21;100.00
13767;BME280;47980;48.794;9.176;2023-05-23T02:29:29;98080.88;;;18.31;100.00
13767;BME280;47980;48.794;9.176;2023-05-23T02:32:00;98075.56;;;18.38;100.00
13767;BME280;47980;48.794;9.176;2023-05-23T02:34:32;98077.81;;;18.33;100.00
13767;BME280;47980;48.794;9.176;2023-05-23T02:37:03;98085.44;;;18.20;100.00
13767;BME280;47980;48.794;9.176;2023-05-23T02:39:35;98084.97;;;18.07;100.00
13767;BME280;47980;48.794;9.176;2023-05-23T02:42:07;98097.75;;;18.32;100.00
13767;BME280;47980;48.794;9.176;2023-05-23T02:44:39;98090.47;;;18.28;100.00
13767;BME280;47980;48.794;9.176;2023-05-23T02:47:11;98090.41;;;18.21;100.00
13767;BME280;47980;48.794;9.176;2023-05-23T02:49:42;98093.97;;;18.40;100.00
13767;BME280;47980;48.794;9.176;2023-05-23T02:52:14;98095.47;;;18.37;100.00
13767;BME280;47980;48.794;9.176;2023-05-23T02:54:46;98102.03;;;18.40;100.00
13767;BME280;47980;48.794;9.176;2023-05-23T02:57:17;98103.56;;;18.41;100.00
13767;BME280;47980;48.794;9.176;2023-05-23T02:59:50;98105.91;;;18.49;99.92
13767;BME280;47980;48.794;9.176;2023-05-23T03:02:21;98102.38;;;18.31;100.00
13767;BME280;47980;48.794;9.176;2023-05-23T03:04:53;98104.28;;;18.27;100.00
13767;BME280;47980;48.794;9.176;2023-05-23T03:07:25;98101.97;;;18.29;100.00
13767;BME280;47980;48.794;9.176;2023-05-23T03:09:56;98105.75;;;18.21;100.00
13767;BME280;47980;48.794;9.176;2023-05-23T03:12:28;98111.25;;;18.42;100.00
13767;BME280;47980;48.794;9.176;2023-05-23T03:15:01;98110.91;;;18.55;99.00
13767;BME280;47980;48.794;9.176;2023-05-23T03:17:32;98112.78;;;18.43;99.41
13767;BME280;47980;48.794;9.176;2023-05-23T03:20:04;98118.88;;;18.37;100.00
13767;BME280;47980;48.794;9.176;2023-05-23T03:22:39;98121.19;;;18.35;99.87
13767;BME280;47980;48.794;9.176;2023-05-23T03:25:14;98123.94;;;18.45;99.93
13767;BME280;47980;48.794;9.176;2023-05-23T03:27:46;98117.03;;;18.51;99.34
13767;BME280;47980;48.794;9.176;2023-05-23T03:30:19;98122.41;;;18.48;98.67
13767;BME280;47980;48.794;9.176;2023-05-23T03:32:51;98131.31;;;18.70;97.55
13767;BME280;47980;48.794;9.176;2023-05-23T03:35:22;98127.88;;;18.66;98.04
13767;BME280;47980;48.794;9.176;2023-05-23T03:37:54;98122.50;;;18.66;98.17
13767;BME280;47980;48.794;9.176;2023-05-23T03:40:25;98124.09;;;18.74;97.36
13767;BME280;47980;48.794;9.176;2023-05-23T03:43:01;98129.84;;;18.72;97.55
13767;BME280;47980;48.794;9.176;2023-05-23T03:45:35;98126.22;;;18.43;99.28
13767;BME280;47980;48.794;9.176;2023-05-23T03:48:06;98122.41;;;18.48;99.18
13767;BME280;47980;48.794;9.176;2023-05-23T03:50:38;98127.00;;;18.44;99.16
13767;BME280;47980;48.794;9.176;2023-05-23T03:53:10;98123.22;;;18.52;98.26
13767;BME280;47980;48.794;9.176;2023-05-23T03:55:42;98120.09;;;18.43;99.35
13767;BME280;47980;48.794;9.176;2023-05-23T03:58:13;98121.97;;;18.35;99.81
13767;BME280;47980;48.794;9.176;2023-05-23T04:00:46;98110.81;;;18.37;99.97
13767;BME280;47980;48.794;9.176;2023-05-23T04:03:18;98118.47;;;18.27;100.00
13767;BME280;47980;48.794;9.176;2023-05-23T04:05:50;98126.25;;;18.50;99.11
13767;BME280;47980;48.794;9.176;2023-05-23T04:08:22;98120.13;;;18.50;98.26
13767;BME280;47980;48.794;9.176;2023-05-23T04:10:53;98126.59;;;18.42;99.51
13767;BME280;47980;48.794;9.176;2023-05-23T04:13:25;98129.25;;;18.35;99.80
13767;BME280;47980;48.794;9.176;2023-05-23T04:15:58;98131.59;;;18.47;99.31
13767;BME280;47980;48.794;9.176;2023-05-23T04:18:30;98131.31;;;18.59;98.70
13767;BME280;47980;48.794;9.176;2023-05-23T04:21:02;98131.31;;;18.66;97.38
13767;BME280;47980;48.794;9.176;2023-05-23T04:23:34;98127.38;;;18.42;98.12
13767;BME280;47980;48.794;9.176;2023-05-23T04:26:06;98128.88;;;18.40;99.59
13767;BME280;47980;48.794;9.176;2023-05-23T04:28:39;98128.59;;;18.56;97.99
13767;BME280;47980;48.794;9.176;2023-05-23T04:31:14;98137.81;;;18.58;98.32
13767;BME280;47980;48.794;9.176;2023-05-23T04:33:45;98141.69;;;18.68;97.11
13767;BME280;47980;48.794;9.176;2023-05-23T04:36:17;98144.75;;;18.66;97.14
13767;BME280;47980;48.794;9.176;2023-05-23T04:38:49;98146.00;;;18.80;97.28
13767;BME280;47980;48.794;9.176;2023-05-23T04:41:20;98142.06;;;18.59;97.33
13767;BME280;47980;48.794;9.176;2023-05-23T04:43:52;98150.06;;;18.48;97.65
13767;BME280;47980;48.794;9.176;2023-05-23T04:46:25;98150.13;;;18.59;98.33
13767;BME280;47980;48.794;9.176;2023-05-23T04:48:57;98152.44;;;18.68;98.02
13767;BME280;47980;48.794;9.176;2023-05-23T04:51:29;98155.94;;;18.72;97.95
13767;BME280;47980;48.794;9.176;2023-05-23T04:54:01;98160.00;;;18.44;98.59
13767;BME280;47980;48.794;9.176;2023-05-23T04:56:32;98155.06;;;18.53;98.82
13767;BME280;47980;48.794;9.176;2023-05-23T04:59:04;98169.00;;;18.73;96.23
13767;BME280;47980;48.794;9.176;2023-05-23T05:01:39;98170.47;;;18.64;97.25
13767;BME280;47980;48.794;9.176;2023-05-23T05:04:10;98167.50;;;18.80;97.39
13767;BME280;47980;48.794;9.176;2023-05-23T05:06:42;98169.44;;;18.83;95.40
13767;BME280;47980;48.794;9.176;2023-05-23T05:09:13;98167.56;;;18.90;95.23
13767;BME280;47980;48.794;9.176;2023-05-23T05:11:45;98169.41;;;18.75;96.50
13767;BME280;47980;48.794;9.176;2023-05-23T05:14:16;98171.78;;;18.95;94.78
13767;BME280;47980;48.794;9.176;2023-05-23T05:16:49;98172.44;;;18.70;95.43
13767;BME280;47980;48.794;9.176;2023-05-23T05:19:21;98170.22;;;18.83;96.18
13767;BME280;47980;48.794;9.176;2023-05-23T05:21:52;98173.16;;;18.60;96.34
13767;BME280;47980;48.794;9.176;2023-05-23T05:24:24;98171.16;;;18.50;99.35
13767;BME280;47980;48.794;9.176;2023-05-23T05:26:56;98175.25;;;18.88;96.08
13767;BME280;47980;48.794;9.176;2023-05-23T05:29:28;98181.47;;;19.14;93.90
13767;BME280;47980;48.794;9.176;2023-05-23T05:32:02;98187.69;;;19.29;91.77
13767;BME280;47980;48.794;9.176;2023-05-23T05:34:34;98194.19;;;19.31;91.71
13767;BME280;47980;48.794;9.176;2023-05-23T05:37:07;98189.41;;;18.78;93.29
13767;BME280;47980;48.794;9.176;2023-05-23T05:39:38;98189.66;;;18.62;95.95
13767;BME280;47980;48.794;9.176;2023-05-23T05:42:10;98196.03;;;19.06;94.24
13767;BME280;47980;48.794;9.176;2023-05-23T05:44:41;98185.69;;;19.08;94.21
13767;BME280;47980;48.794;9.176;2023-05-23T05:47:15;98183.69;;;18.90;93.82
13767;BME280;47980;48.794;9.176;2023-05-23T05:49:46;98185.16;;;18.81;93.40
13767;BME280;47980;48.794;9.176;2023-05-23T05:52:18;98187.59;;;19.04;94.19
13767;BME280;47980;48.794;9.176;2023-05-23T05:54:49;98185.34;;;19.27;91.93
13767;BME280;47980;48.794;9.176;2023-05-23T05:57:21;98189.25;;;19.51;90.62
13767;BME280;47980;48.794;9.176;2023-05-23T05:59:52;98190.81;;;19.52;89.94
13767;BME280;47980;48.794;9.176;2023-05-23T06:02:25;98188.88;;;19.53;89.12
13767;BME280;47980;48.794;9.176;2023-05-23T06:04:57;98196.88;;;19.24;90.49
13767;BME280;47980;48.794;9.176;2023-05-23T06:07:28;98195.00;;;19.46;90.48
13767;BME280;47980;48.794;9.176;2023-05-23T06:10:00;98199.56;;;19.31;89.42
13767;BME280;47980;48.794;9.176;2023-05-23T06:12:31;98206.59;;;19.54;89.46
13767;BME280;47980;48.794;9.176;2023-05-23T06:15:03;98203.06;;;19.46;89.01
13767;BME280;47980;48.794;9.176;2023-05-23T06:17:37;98198.44;;;19.32;89.98
13767;BME280;47980;48.794;9.176;2023-05-23T06:20:09;98196.19;;;19.52;88.55
13767;BME280;47980;48.794;9.176;2023-05-23T06:22:41;98197.28;;;19.33;89.81
13767;BME280;47980;48.794;9.176;2023-05-23T06:25:12;98199.56;;;19.24;89.85
13767;BME280;47980;48.794;9.176;2023-05-23T06:27:44;98202.38;;;19.63;88.38
13767;BME280;47980;48.794;9.176;2023-05-23T06:30:15;98193.53;;;19.63;88.13
13767;BME280;47980;48.794;9.176;2023-05-23T06:32:48;98204.25;;;19.56;87.53
13767;BME280;47980;48.794;9.176;2023-05-23T06:35:20;98210.38;;;19.42;89.63
13767;BME280;47980;48.794;9.176;2023-05-23T06:37:51;98212.34;;;19.56;87.99
13767;BME280;47980;48.794;9.176;2023-05-23T06:40:23;98215.03;;;19.59;88.57
13767;BME280;47980;48.794;9.176;2023-05-23T06:42:54;98225.00;;;19.48;88.35
13767;BME280;47980;48.794;9.176;2023-05-23T06:45:26;98224.16;;;19.22;90.37
13767;BME280;47980;48.794;9.176;2023-05-23T06:47:58;98232.25;;;19.26;90.15
13767;BME280;47980;48.794;9.176;2023-05-23T06:50:30;98236.81;;;19.15;90.41
13767;BME280;47980;48.794;9.176;2023-05-23T06:53:02;98242.22;;;19.18;90.32
13767;BME280;47980;48.794;9.176;2023-05-23T06:55:34;98244.41;;;19.02;91.13
13767;BME280;47980;48.794;9.176;2023-05-23T06:58:05;98238.31;;;19.09;89.88
13767;BME280;47980;48.794;9.176;2023-05-23T07:00:37;98246.38;;;19.05;90.33
13767;BME280;47980;48.794;9.176;2023-05-23T07:03:09;98247.44;;;18.90;92.04
13767;BME280;47980;48.794;9.176;2023-05-23T07:05:41;98256.97;;;18.80;91.54
13767;BME280;47980;48.794;9.176;2023-05-23T07:08:13;98254.50;;;18.57;92.81
13767;BME280;47980;48.794;9.176;2023-05-23T07:10:44;98253.44;;;18.69;93.27
13767;BME280;47980;48.794;9.176;2023-05-23T07:13:16;98262.25;;;18.69;91.92
13767;BME280;47980;48.794;9.176;2023-05-23T07:15:47;98253.31;;;18.55;91.88
13767;BME280;47980;48.794;9.176;2023-05-23T07:18:20;98264.28;;;18.80;89.47
13767;BME280;47980;48.794;9.176;2023-05-23T07:20:52;98263.47;;;18.72;88.99
13767;BME280;47980;48.794;9.176;2023-05-23T07:23:23;98271.09;;;18.70;89.44
13767;BME280;47980;48.794;9.176;2023-05-23T07:25:55;98265.25;;;18.57;89.11
13767;BME280;47980;48.794;9.176;2023-05-23T07:28:27;98266.88;;;18.69;88.42
13767;BME280;47980;48.794;9.176;2023-05-23T07:30:59;98265.16;;;18.98;85.62
13767;BME280;47980;48.794;9.176;2023-05-23T07:33:32;98270.81;;;18.79;85.16
13767;BME280;47980;48.794;9.176;2023-05-23T07:36:03;98278.56;;;18.91;83.76
13767;BME280;47980;48.794;9.176;2023-05-23T07:38:35;98263.31;;;19.13;82.41
13767;BME280;47980;48.794;9.176;2023-05-23T07:41:07;98273.97;;;18.98;83.83
13767;BME280;47980;48.794;9.176;2023-05-23T07:43:39;98273.94;;;18.91;83.63
13767;BME280;47980;48.794;9.176;2023-05-23T07:46:10;98281.03;;;18.66;86.05
13767;BME280;47980;48.794;9.176;2023-05-23T07:48:44;98277.13;;;18.52;87.64
13767;BME280;47980;48.794;9.176;2023-05-23T07:51:15;98278.66;;;18.53;86.85
13767;BME280;47980;48.794;9.176;2023-05-23T07:53:49;98283.16;;;18.90;84.79
13767;BME280;47980;48.794;9.176;2023-05-23T07:56:21;98279.19;;;19.36;82.06
13767;BME280;47980;48.794;9.176;2023-05-23T07:58:52;98283.28;;;19.12;82.35
13767;BME280;47980;48.794;9.176;2023-05-23T08:01:24;98276.44;;;19.29;79.01
13767;BME280;47980;48.794;9.176;2023-05-23T08:04:00;98291.81;;;19.32;77.64
13767;BME280;47980;48.794;9.176;2023-05-23T08:06:32;98287.53;;;19.20;77.54
13767;BME280;47980;48.794;9.176;2023-05-23T08:09:04;98294.31;;;18.92;77.99
13767;BME280;47980;48.794;9.176;2023-05-23T08:11:36;98290.59;;;19.11;76.04
13767;BME280;47980;48.794;9.176;2023-05-23T08:14:07;98297.06;;;18.99;76.03
13767;BME280;47980;48.794;9.176;2023-05-23T08:16:39;98300.16;;;19.09;74.61
13767;BME280;47980;48.794;9.176;2023-05-23T08:19:12;98307.31;;;18.83;76.77
13767;BME280;47980;48.794;9.176;2023-05-23T08:21:44;98303.44;;;18.81;77.51
13767;BME280;47980;48.794;9.176;2023-05-23T08:24:16;98304.09;;;18.67;77.29
13767;BME280;47980;48.794;9.176;2023-05-23T08:26:48;98310.56;;;18.59;78.89
13767;BME280;47980;48.794;9.176;2023-05-23T08:29:20;98305.84;;;18.04;79.63
13767;BME280;47980;48.794;9.176;2023-05-23T08:31:54;98308.06;;;18.36;79.49
13767;BME280;47980;48.794;9.176;2023-05-23T08:34:26;98310.25;;;18.19;79.32
13767;BME280;47980;48.794;9.176;2023-05-23T08:36:58;98322.28;;;18.36;79.46
13767;BME280;47980;48.794;9.176;2023-05-23T08:39:30;98314.44;;;18.17;78.42
13767;BME280;47980;48.794;9.176;2023-05-23T08:42:01;98314.69;;;18.45;78.33
13767;BME280;47980;48.794;9.176;2023-05-23T08:44:33;98323.25;;;18.62;76.20
13767;BME280;47980;48.794;9.176;2023-05-23T08:47:07;98317.22;;;18.72;76.07
13767;BME280;47980;48.794;9.176;2023-05-23T08:49:44;98331.22;;;18.51;76.60
13767;BME280;47980;48.794;9.176;2023-05-23T08:52:17;98335.22;;;18.68;76.42
13767;BME280;47980;48.794;9.176;2023-05-23T08:54:51;98330.28;;;18.77;75.42
13767;BME280;47980;48.794;9.176;2023-05-23T08:57:24;98334.75;;;18.62;75.99
13767;BME280;47980;48.794;9.176;2023-05-23T08:59:56;98334.72;;;18.55;75.56
13767;BME280;47980;48.794;9.176;2023-05-23T09:02:28;98344.72;;;18.58;75.95
13767;BME280;47980;48.794;9.176;2023-05-23T09:05:03;98343.75;;;18.81;73.56
13767;BME280;47980;48.794;9.176;2023-05-23T09:07:35;98345.03;;;18.94;74.85
13767;BME280;47980;48.794;9.176;2023-05-23T09:10:08;98353.91;;;19.02;73.95
13767;BME280;47980;48.794;9.176;2023-05-23T09:12:40;98351.59;;;19.00;74.08
13767;BME280;47980;48.794;9.176;2023-05-23T09:15:12;98349.78;;;19.15;72.98
13767;BME280;47980;48.794;9.176;2023-05-23T09:17:46;98347.78;;;19.05;72.90
13767;BME280;47980;48.794;9.176;2023-05-23T09:20:19;98349.25;;;18.50;76.06
13767;BME280;47980;48.794;9.176;2023-05-23T09:22:50;98355.66;;;18.35;76.06
13767;BME280;47980;48.794;9.176;2023-05-23T09:25:22;98354.69;;;18.58;75.41
13767;BME280;47980;48.794;9.176;2023-05-23T09:27:54;98357.44;;;18.65;74.84
13767;BME280;47980;48.794;9.176;2023-05-23T09:30:33;98360.75;;;18.47;74.92
13767;BME280;47980;48.794;9.176;2023-05-23T09:33:04;98359.09;;;18.76;73.13
13767;BME280;47980;48.794;9.176;2023-05-23T09:35:43;98353.91;;;19.02;71.89
13767;BME280;47980;48.794;9.176;2023-05-23T09:38:14;98356.78;;;19.30;71.13
13767;BME280;47980;48.794;9.176;2023-05-23T09:40:46;98354.16;;;19.41;71.67
13767;BME280;47980;48.794;9.176;2023-05-23T09:43:20;98356.53;;;19.60;69.13
13767;BME280;47980;48.794;9.176;2023-05-23T09:45:52;98362.44;;;19.87;68.49
13767;BME280;47980;48.794;9.176;2023-05-23T09:48:28;98371.31;;;19.91;68.01
13767;BME280;47980;48.794;9.176;2023-05-23T09:51:04;98359.91;;;19.39;68.37
13767;BME280;47980;48.794;9.176;2023-05-23T09:53:36;98362.59;;;19.39;68.38
13767;BME280;47980;48.794;9.176;2023-05-23T09:56:09;98366.03;;;19.33;69.11
13767;BME280;47980;48.794;9.176;2023-05-23T09:58:44;98367.19;;;19.39;69.12
13767;BME280;47980;48.794;9.176;2023-05-23T10:01:15;98367.28;;;19.57;68.06
13767;BME280;47980;48.794;9.176;2023-05-23T10:03:48;98362.63;;;19.43;68.16
13767;BME280;47980;48.794;9.176;2023-05-23T10:06:25;98364.31;;;19.73;66.95
13767;BME280;47980;48.794;9.176;2023-05-23T10:09:03;98363.66;;;20.11;66.59
13767;BME280;47980;48.794;9.176;2023-05-23T10:14:44;98347.97;;;20.81;61.75
13767;BME280;47980;48.794;9.176;2023-05-23T10:17:18;98351.03;;;20.83;62.25
13767;BME280;47980;48.794;9.176;2023-05-23T10:19:55;98354.13;;;20.92;61.70
13767;BME280;47980;48.794;9.176;2023-05-23T10:22:30;98352.97;;;21.01;61.66
13767;BME280;47980;48.794;9.176;2023-05-23T10:25:03;98357.53;;;20.29;63.44
13767;BME280;47980;48.794;9.176;2023-05-23T10:27:38;98355.63;;;21.26;60.22
13767;BME280;47980;48.794;9.176;2023-05-23T10:30:11;98356.38;;;21.44;60.95
13767;BME280;47980;48.794;9.176;2023-05-23T10:32:43;98363.72;;;20.47;62.49
13767;BME280;47980;48.794;9.176;2023-05-23T10:35:21;98352.41;;;21.74;58.75
13767;BME280;47980;48.794;9.176;2023-05-23T10:38:01;98361.78;;;21.41;58.39
13767;BME280;47980;48.794;9.176;2023-05-23T10:40:43;98349.44;;;21.47;58.04
13767;BME280;47980;48.794;9.176;2023-05-23T10:43:21;98356.38;;;21.37;60.41
13767;BME280;47980;48.794;9.176;2023-05-23T10:45:55;98360.25;;;21.39;59.43
13767;BME280;47980;48.794;9.176;2023-05-23T10:48:34;98353.75;;;20.90;60.56
13767;BME280;47980;48.794;9.176;2023-05-23T10:51:12;98354.47;;;21.20;59.79
13767;BME280;47980;48.794;9.176;2023-05-23T10:53:45;98356.53;;;21.96;58.26
13767;BME280;47980;48.794;9.176;2023-05-23T10:56:19;98356.97;;;21.91;58.03
13767;BME280;47980;48.794;9.176;2023-05-23T10:58:52;98359.47;;;21.46;59.76
13767;BME280;47980;48.794;9.176;2023-05-23T11:01:25;98356.81;;;21.10;61.22
13767;BME280;47980;48.794;9.176;2023-05-23T11:04:04;98354.38;;;21.62;59.31
13767;BME280;47980;48.794;9.176;2023-05-23T11:06:37;98355.16;;;21.63;58.28
13767;BME280;47980;48.794;9.176;2023-05-23T11:09:13;98352.00;;;21.82;57.33
13767;BME280;47980;48.794;9.176;2023-05-23T11:11:51;98361.66;;;21.76;57.08
13767;BME280;47980;48.794;9.176;2023-05-23T11:14:49;98364.06;;;21.46;57.59
13767;BME280;47980;48.794;9.176;2023-05-23T11:17:31;98372.09;;;21.67;56.30
13767;BME280;47980;48.794;9.176;2023-05-23T11:20:03;98369.09;;;21.47;56.85
13767;BME280;47980;48.794;9.176;2023-05-23T11:22:37;98364.78;;;21.64;56.26
13767;BME280;47980;48.794;9.176;2023-05-23T11:25:10;98371.63;;;21.90;55.60
13767;BME280;47980;48.794;9.176;2023-05-23T11:27:45;98372.34;;;22.01;55.51
13767;BME280;47980;48.794;9.176;2023-05-23T11:30:17;98369.75;;;21.76;55.93
13767;BME280;47980;48.794;9.176;2023-05-23T11:32:50;98365.97;;;21.59;55.56
13767;BME280;47980;48.794;9.176;2023-05-23T11:35:22;98371.44;;;21.34;57.16
13767;BME280;47980;48.794;9.176;2023-05-23T11:37:55;98366.00;;;21.45;57.70
13767;BME280;47980;48.794;9.176;2023-05-23T11:40:29;98368.34;;;21.32;58.12
13767;BME280;47980;48.794;9.176;2023-05-23T11:43:03;98367.19;;;21.15;58.23
13767;BME280;47980;48.794;9.176;2023-05-23T11:45:36;98366.59;;;21.92;56.29
13767;BME280;47980;48.794;9.176;2023-05-23T11:48:08;98372.41;;;21.91;56.16
13767;BME280;47980;48.794;9.176;2023-05-23T11:50:46;98371.94;;;22.03;55.54
13767;BME280;47980;48.794;9.176;2023-05-23T11:53:18;98360.59;;;21.31;57.53
13767;BME280;47980;48.794;9.176;2023-05-23T11:55:53;98358.38;;;22.14;56.05
13767;BME280;47980;48.794;9.176;2023-05-23T11:58:30;98366.78;;;22.86;55.35
13767;BME280;47980;48.794;9.176;2023-05-23T12:01:03;98357.38;;;23.01;53.16
13767;BME280;47980;48.794;9.176;2023-05-23T12:03:44;98363.78;;;22.17;53.56
13767;BME280;47980;48.794;9.176;2023-05-23T12:06:17;98365.84;;;22.54;52.80
13767;BME280;47980;48.794;9.176;2023-05-23T12:08:50;98359.22;;;21.96;54.82
13767;BME280;47980;48.794;9.176;2023-05-23T12:11:23;98358.50;;;21.88;55.12
13767;BME280;47980;48.794;9.176;2023-05-23T12:13:56;98360.59;;;21.31;56.25
13767;BME280;47980;48.794;9.176;2023-05-23T12:16:29;98370.03;;;21.96;54.51
13767;BME280;47980;48.794;9.176;2023-05-23T12:19:02;98357.16;;;21.37;54.21
13767;BME280;47980;48.794;9.176;2023-05-23T12:21:42;98348.97;;;21.66;54.82
13767;BME280;47980;48.794;9.176;2023-05-23T12:24:16;98347.69;;;21.88;54.52
13767;BME280;47980;48.794;9.176;2023-05-23T12:26:50;98346.19;;;21.84;54.87
13767;BME280;47980;48.794;9.176;2023-05-23T12:29:27;98342.06;;;21.58;55.66
13767;BME280;47980;48.794;9.176;2023-05-23T12:32:00;98337.81;;;22.34;52.89
13767;BME280;47980;48.794;9.176;2023-05-23T12:34:32;98335.56;;;22.22;54.33
13767;BME280;47980;48.794;9.176;2023-05-23T12:37:13;98342.09;;;22.28;54.48
13767;BME280;47980;48.794;9.176;2023-05-23T12:39:45;98340.44;;;21.71;56.39
13767;BME280;47980;48.794;9.176;2023-05-23T12:42:17;98334.72;;;21.55;55.88
13767;BME280;47980;48.794;9.176;2023-05-23T12:44:50;98332.03;;;21.55;56.14
13767;BME280;47980;48.794;9.176;2023-05-23T12:47:22;98337.47;;;22.25;55.46
13767;BME280;47980;48.794;9.176;2023-05-23T12:49:53;98333.41;;;23.03;52.93
13767;BME280;47980;48.794;9.176;2023-05-23T12:52:25;98335.25;;;22.65;54.80
13767;BME280;47980;48.794;9.176;2023-05-23T12:54:56;98324.13;;;23.00;52.89
13767;BME280;47980;48.794;9.176;2023-05-23T12:57:30;98329.41;;;22.73;54.19
13767;BME280;47980;48.794;9.176;2023-05-23T13:00:01;98329.00;;;23.16;52.59
13767;BME280;47980;48.794;9.176;2023-05-23T13:02:37;98313.56;;;22.72;53.59
13767;BME280;47980;48.794;9.176;2023-05-23T13:05:09;98325.22;;;23.44;52.82
13767;BME280;47980;48.794;9.176;2023-05-23T13:07:40;98320.34;;;23.63;51.37
13767;BME280;47980;48.794;9.176;2023-05-23T13:10:13;98319.84;;;22.58;52.62
13767;BME280;47980;48.794;9.176;2023-05-23T13:12:46;98319.50;;;22.56;53.23
13767;BME280;47980;48.794;9.176;2023-05-23T13:15:18;98315.38;;;22.41;53.13
13767;BME280;47980;48.794;9.176;2023-05-23T13:17:50;98317.66;;;22.42;53.49
13767;BME280;47980;48.794;9.176;2023-05-23T13:20:23;98316.19;;;22.34;54.02
13767;BME280;47980;48.794;9.176;2023-05-23T13:22:59;98319.81;;;22.62;53.58
13767;BME280;47980;48.794;9.176;2023-05-23T13:25:32;98321.72;;;22.65;54.38
13767;BME280;47980;48.794;9.176;2023-05-23T13:28:05;98309.94;;;22.44;54.47
13767;BME280;47980;48.794;9.176;2023-05-23T13:30:36;98317.13;;;22.06;55.04
13767;BME280;47980;48.794;9.176;2023-05-23T13:33:08;98323.13;;;21.69;56.69
13767;BME280;47980;48.794;9.176;2023-05-23T13:35:40;98327.88;;;21.18;58.16